Terminal Aerodrome Forecast
Issued by NWS Grand Junction, CO

Home | Current Version | Previous Version | Text Only | Print | Product List | Glossary On
Versions: 1 2 3 4 5 6 7 8 9 10 11 12 13 14 15
000
FTUS45 KGJT 261741
TAFGJT
TAF
KGJT 261741Z 2618/2718 17006KT P6SM FEW130 FEW200
     FM262000 31008KT P6SM FEW130 FEW200
     FM270300 04006KT P6SM FEW140 SCT200
     FM270700 10006KT P6SM BKN130 BKN200
     FM271700 15007KT P6SM SCT100 BKN150=

USA.gov is the U.S. government's official web portal to all federal, state and local government web resources and services.